createdAt,value
2022-12-26T00:00:54.535Z,0.00
2022-12-26T00:03:22.179Z,0.25
2022-12-26T00:05:49.816Z,0.10
2022-12-26T00:08:18.969Z,0.05
2022-12-26T00:10:46.500Z,0.00
2022-12-26T00:13:38.108Z,0.20
2022-12-26T00:16:01.853Z,0.22
2022-12-26T00:18:29.370Z,0.38
2022-12-26T00:20:57.540Z,0.10
2022-12-26T00:23:26.403Z,0.30
2022-12-26T00:25:53.907Z,0.10
2022-12-26T00:28:21.548Z,0.00
2022-12-26T00:30:49.020Z,0.03
2022-12-26T00:33:16.503Z,0.00
2022-12-26T00:35:44.239Z,0.00
2022-12-26T00:38:11.754Z,0.90
2022-12-26T00:40:43.429Z,0.10
2022-12-26T00:43:10.975Z,0.03
2022-12-26T00:45:38.881Z,0.00
2022-12-26T00:48:06.904Z,0.30
2022-12-26T00:50:35.079Z,0.00
2022-12-26T00:53:02.954Z,0.28
2022-12-26T00:55:30.444Z,0.05
2022-12-26T00:57:59.568Z,0.00
2022-12-26T01:00:27.569Z,0.00
2022-12-26T01:02:55.258Z,0.40
2022-12-26T01:05:23.797Z,0.20
2022-12-26T01:08:21.184Z,0.50
2022-12-26T01:10:41.891Z,0.20
2022-12-26T01:13:10.841Z,0.00
2022-12-26T01:15:38.665Z,0.10
2022-12-26T01:18:06.589Z,0.28
2022-12-26T01:20:34.371Z,0.10
2022-12-26T01:23:01.947Z,0.10
2022-12-26T01:25:29.695Z,0.10
2022-12-26T01:27:57.248Z,0.10
2022-12-26T01:30:26.134Z,0.30
2022-12-26T01:32:53.792Z,0.20
2022-12-26T01:35:21.456Z,0.20
2022-12-26T01:37:49.094Z,0.10
2022-12-26T01:40:16.921Z,0.15
2022-12-26T01:42:44.619Z,0.70
2022-12-26T01:45:23.538Z,0.10
2022-12-26T01:47:56.414Z,0.10
2022-12-26T01:50:38.867Z,0.20
2022-12-26T01:53:11.867Z,0.30
2022-12-26T01:55:40.286Z,0.20
2022-12-26T01:58:11.506Z,0.10
2022-12-26T02:00:39.296Z,0.20
2022-12-26T02:03:27.378Z,0.50
2022-12-26T02:05:57.149Z,0.50
2022-12-26T02:08:28.381Z,0.30
2022-12-26T02:10:58.814Z,0.00
2022-12-26T02:13:26.643Z,0.50
2022-12-26T02:15:54.361Z,0.10
2022-12-26T02:18:23.269Z,0.27
2022-12-26T02:21:00.312Z,0.20
2022-12-26T02:24:06.369Z,0.30
2022-12-26T02:27:10.413Z,0.30
2022-12-26T02:30:11.594Z,0.03
2022-12-26T02:33:18.111Z,0.40
2022-12-26T02:35:53.938Z,0.70
2022-12-26T02:38:30.213Z,0.60
2022-12-26T02:41:05.251Z,0.17
2022-12-26T02:43:39.699Z,0.70
2022-12-26T02:46:31.976Z,0.00
2022-12-26T02:49:06.791Z,0.40
2022-12-26T02:52:02.567Z,0.57
2022-12-26T02:54:54.495Z,0.20
2022-12-26T02:57:42.983Z,0.50
2022-12-26T03:00:32.588Z,0.30
2022-12-26T03:03:20.735Z,0.63
2022-12-26T03:06:09.746Z,1.02
2022-12-26T03:08:58.387Z,0.00
2022-12-26T03:11:45.854Z,1.20
2022-12-26T03:14:18.096Z,0.50
2022-12-26T03:17:05.592Z,0.10
2022-12-26T03:19:34.048Z,0.00
2022-12-26T03:22:24.633Z,0.60
2022-12-26T03:25:07.920Z,0.20
2022-12-26T03:27:35.381Z,0.10
2022-12-26T03:30:20.828Z,0.57
2022-12-26T03:32:48.509Z,0.80
2022-12-26T03:35:16.047Z,0.52
2022-12-26T03:37:51.093Z,0.35
2022-12-26T03:41:02.876Z,0.00
2022-12-26T03:44:02.782Z,0.10
2022-12-26T03:46:55.013Z,0.50
2022-12-26T03:49:41.737Z,0.88
2022-12-26T03:52:33.130Z,0.55
2022-12-26T03:55:24.704Z,0.50
2022-12-26T03:58:14.002Z,0.27
2022-12-26T04:01:00.567Z,0.20
2022-12-26T04:03:48.612Z,0.10
2022-12-26T04:06:36.470Z,0.00
2022-12-26T04:09:26.302Z,0.30
2022-12-26T04:12:13.931Z,0.43
2022-12-26T04:15:02.195Z,0.77
2022-12-26T04:17:52.784Z,0.70
2022-12-26T04:20:24.979Z,0.70
2022-12-26T04:23:11.877Z,0.10
2022-12-26T04:26:03.903Z,0.20
2022-12-26T04:28:50.354Z,0.57
2022-12-26T04:31:39.747Z,0.50
2022-12-26T04:34:28.019Z,0.40
2022-12-26T04:37:17.392Z,0.45
2022-12-26T04:40:04.513Z,0.40
2022-12-26T04:42:50.436Z,0.52
2022-12-26T04:45:20.566Z,0.20
2022-12-26T04:48:02.143Z,0.30
2022-12-26T04:50:29.661Z,0.30
2022-12-26T04:52:59.609Z,0.20
2022-12-26T04:55:29.533Z,0.30
2022-12-26T04:57:57.322Z,0.90
2022-12-26T05:00:28.020Z,0.65
2022-12-26T05:03:18.582Z,0.20
2022-12-26T05:06:08.459Z,0.10
2022-12-26T05:08:55.396Z,0.20
2022-12-26T05:11:23.617Z,0.60
2022-12-26T05:13:52.729Z,0.20
2022-12-26T05:16:39.686Z,0.00
2022-12-26T05:19:25.581Z,0.00
2022-12-26T05:22:11.311Z,0.70
2022-12-26T05:24:58.176Z,0.30
2022-12-26T05:27:43.924Z,0.10
2022-12-26T05:30:12.449Z,0.30
2022-12-26T05:32:59.060Z,0.40
2022-12-26T05:35:27.580Z,0.20
2022-12-26T05:37:55.770Z,0.10
2022-12-26T05:40:23.270Z,0.10
2022-12-26T05:42:51.039Z,0.03
2022-12-26T05:45:18.677Z,0.00
2022-12-26T05:47:51.809Z,0.10
2022-12-26T05:50:19.795Z,0.20
2022-12-26T05:52:47.496Z,0.50
2022-12-26T05:55:15.205Z,0.55
2022-12-26T05:57:42.675Z,1.50
2022-12-26T06:00:11.759Z,0.43
2022-12-26T06:02:39.558Z,0.00
2022-12-26T06:05:09.335Z,0.20
2022-12-26T06:07:37.025Z,0.20
2022-12-26T06:10:06.379Z,0.70
2022-12-26T06:12:34.531Z,0.00
2022-12-26T06:15:02.368Z,0.20
2022-12-26T06:17:30.133Z,0.00
2022-12-26T06:19:57.849Z,0.20
2022-12-26T06:22:26.927Z,0.10
2022-12-26T06:24:54.392Z,0.10
2022-12-26T06:27:22.053Z,0.40
2022-12-26T06:29:49.542Z,0.00
2022-12-26T06:32:17.193Z,0.97
2022-12-26T06:34:44.861Z,0.35
2022-12-26T06:37:12.454Z,0.60
2022-12-26T06:39:41.523Z,0.65
2022-12-26T06:42:09.827Z,0.00
2022-12-26T06:44:37.492Z,0.08
2022-12-26T06:47:05.734Z,0.00
2022-12-26T06:49:33.547Z,0.00
2022-12-26T06:52:01.133Z,0.28
2022-12-26T06:54:29.103Z,0.00
2022-12-26T06:56:58.099Z,0.30
2022-12-26T06:59:25.601Z,0.10
2022-12-26T07:01:53.297Z,0.10
2022-12-26T07:04:21.105Z,0.40
2022-12-26T07:06:48.703Z,0.00
2022-12-26T07:09:18.980Z,0.30
2022-12-26T07:11:48.128Z,0.00
2022-12-26T07:14:17.723Z,0.30
2022-12-26T07:16:46.295Z,0.10
2022-12-26T07:19:14.939Z,0.00
2022-12-26T07:21:43.180Z,0.40
2022-12-26T07:24:15.986Z,0.60
2022-12-26T07:26:43.708Z,0.50
2022-12-26T07:29:12.535Z,0.10
2022-12-26T07:31:42.970Z,0.10
2022-12-26T07:34:10.851Z,0.05
2022-12-26T07:36:38.561Z,0.15
2022-12-26T07:39:06.343Z,0.00
2022-12-26T07:41:51.526Z,0.10
2022-12-26T07:44:19.058Z,0.20
2022-12-26T07:46:48.107Z,0.00
2022-12-26T07:49:16.150Z,0.90
2022-12-26T07:51:43.861Z,0.50
2022-12-26T07:54:12.251Z,0.10
2022-12-26T07:56:40.021Z,0.00
2022-12-26T07:59:07.652Z,0.00
2022-12-26T08:01:35.473Z,0.00
2022-12-26T08:04:04.841Z,0.00
2022-12-26T08:06:32.700Z,0.00
2022-12-26T08:09:00.418Z,0.50
2022-12-26T08:11:28.595Z,0.10
2022-12-26T08:13:56.110Z,0.15
2022-12-26T08:16:23.864Z,0.20
2022-12-26T08:18:51.454Z,0.20
2022-12-26T08:21:20.802Z,0.10
2022-12-26T08:23:48.588Z,0.10
2022-12-26T08:26:20.853Z,0.60
2022-12-26T08:28:48.634Z,0.20
2022-12-26T08:31:16.675Z,0.60
2022-12-26T08:33:44.362Z,0.10
2022-12-26T08:36:13.741Z,0.60
2022-12-26T08:38:42.581Z,0.00
2022-12-26T08:41:10.439Z,0.30
2022-12-26T08:44:25.650Z,0.00
2022-12-26T08:46:25.732Z,0.20
2022-12-26T08:48:53.337Z,0.00
2022-12-26T08:51:22.623Z,0.10
2022-12-26T08:53:53.132Z,0.00
2022-12-26T08:56:22.380Z,0.00
2022-12-26T08:58:50.104Z,0.00
2022-12-26T09:01:19.365Z,0.00
2022-12-26T09:03:47.794Z,0.00
2022-12-26T09:06:16.844Z,0.10
2022-12-26T09:08:44.381Z,0.00
2022-12-26T09:11:14.820Z,0.00
2022-12-26T09:13:43.448Z,0.00
2022-12-26T09:16:12.855Z,0.70
2022-12-26T09:18:40.636Z,0.20
2022-12-26T09:21:10.953Z,0.00
2022-12-26T09:23:39.240Z,0.00
2022-12-26T09:26:08.210Z,0.00
2022-12-26T09:28:37.220Z,0.00
2022-12-26T09:31:06.826Z,0.40
2022-12-26T09:33:37.546Z,0.00
2022-12-26T09:36:12.543Z,0.00
2022-12-26T09:38:42.447Z,0.00
2022-12-26T09:41:22.237Z,0.00
2022-12-26T09:44:00.735Z,0.00
2022-12-26T09:46:32.929Z,0.47
2022-12-26T09:49:04.718Z,0.00
2022-12-26T09:51:34.571Z,0.03
2022-12-26T09:54:04.307Z,0.00
2022-12-26T09:59:26.004Z,0.00
2022-12-26T10:01:54.047Z,0.50
2022-12-26T10:04:29.698Z,0.00
2022-12-26T10:07:03.634Z,0.00
2022-12-26T10:09:44.780Z,0.00
2022-12-26T10:12:24.178Z,0.00
2022-12-26T10:14:56.669Z,0.00
2022-12-26T10:17:29.877Z,0.00
2022-12-26T10:20:10.395Z,0.00
2022-12-26T10:23:08.028Z,0.05
2022-12-26T10:25:42.790Z,1.75
2022-12-26T10:28:18.428Z,0.00
2022-12-26T10:30:48.041Z,0.00
2022-12-26T10:33:34.632Z,0.00
2022-12-26T10:36:02.452Z,0.00
2022-12-26T10:38:34.271Z,0.00
2022-12-26T10:41:06.978Z,0.10
2022-12-26T10:43:35.727Z,0.00
2022-12-26T10:46:20.321Z,0.00
2022-12-26T10:48:48.510Z,0.50
2022-12-26T10:51:16.638Z,0.00
2022-12-26T10:53:45.425Z,0.50
2022-12-26T10:56:16.492Z,0.00
2022-12-26T10:58:46.940Z,0.00
2022-12-26T11:01:36.434Z,0.00
2022-12-26T11:04:06.198Z,0.00
2022-12-26T11:06:38.891Z,0.00
2022-12-26T11:09:08.083Z,0.10
2022-12-26T11:11:49.360Z,0.00
2022-12-26T11:14:33.690Z,0.00
2022-12-26T11:17:05.694Z,0.00
2022-12-26T11:19:35.455Z,0.90
2022-12-26T11:22:17.498Z,0.00
2022-12-26T11:24:45.098Z,0.00
2022-12-26T11:27:19.218Z,0.00
2022-12-26T11:29:46.795Z,0.13
2022-12-26T11:32:20.597Z,0.00
2022-12-26T11:34:49.869Z,0.00
2022-12-26T11:37:26.974Z,0.00
2022-12-26T11:39:54.975Z,0.00
2022-12-26T11:42:23.971Z,0.10
2022-12-26T11:44:54.980Z,0.00
2022-12-26T11:47:27.114Z,0.00
2022-12-26T11:50:00.055Z,0.00
2022-12-26T11:52:40.179Z,0.00
2022-12-26T11:55:27.739Z,0.00
2022-12-26T11:58:01.631Z,0.00
2022-12-26T12:00:30.166Z,1.10
2022-12-26T12:02:59.805Z,0.30
2022-12-26T12:05:36.357Z,0.00
2022-12-26T12:08:16.151Z,0.00
2022-12-26T12:11:01.439Z,0.00
2022-12-26T12:13:42.482Z,0.60
2022-12-26T12:16:19.022Z,0.00
2022-12-26T12:18:52.874Z,0.17
2022-12-26T12:21:33.342Z,0.00
2022-12-26T12:24:43.474Z,0.00
2022-12-26T12:27:15.263Z,0.20
2022-12-26T12:30:09.671Z,0.00
2022-12-26T12:32:48.553Z,0.30
2022-12-26T12:35:35.618Z,0.00
2022-12-26T12:38:16.732Z,0.00
2022-12-26T12:40:49.753Z,0.00
2022-12-26T12:43:21.093Z,0.00
2022-12-26T12:45:55.762Z,0.00
2022-12-26T12:48:53.188Z,0.00
2022-12-26T12:51:29.029Z,0.00
2022-12-26T12:54:20.510Z,0.00
2022-12-26T12:56:52.623Z,0.00
2022-12-26T12:59:26.956Z,0.00
2022-12-26T13:02:01.551Z,0.00
2022-12-26T13:04:36.114Z,0.08
2022-12-26T13:07:08.911Z,0.00
2022-12-26T13:09:39.247Z,0.05
2022-12-26T13:12:09.154Z,0.00
2022-12-26T13:14:39.782Z,0.00
2022-12-26T13:17:10.737Z,0.00
2022-12-26T13:19:42.799Z,0.00
2022-12-26T13:22:15.960Z,0.03
2022-12-26T13:24:45.626Z,0.05
2022-12-26T13:27:17.131Z,0.00
2022-12-26T13:29:46.029Z,0.00
2022-12-26T13:32:21.177Z,0.00
2022-12-26T13:34:49.932Z,0.00
2022-12-26T13:37:57.152Z,0.70
2022-12-26T13:40:27.514Z,0.00
2022-12-26T13:43:15.270Z,0.38
2022-12-26T13:45:53.635Z,0.20
2022-12-26T13:48:56.456Z,0.00
2022-12-26T13:51:51.639Z,0.50
2022-12-26T13:54:22.253Z,0.00
2022-12-26T13:57:23.210Z,0.00
2022-12-26T14:00:20.488Z,0.60
2022-12-26T14:03:28.511Z,0.00
2022-12-26T14:06:15.504Z,0.10
2022-12-26T14:08:54.725Z,0.00
2022-12-26T14:11:36.274Z,0.50
2022-12-26T14:14:10.474Z,0.00
2022-12-26T14:16:44.801Z,0.10
2022-12-26T14:19:24.235Z,0.10
2022-12-26T14:21:55.470Z,0.00
2022-12-26T14:24:30.329Z,0.00
2022-12-26T14:27:19.361Z,0.22
2022-12-26T14:29:49.798Z,0.10
2022-12-26T14:32:28.604Z,0.00
2022-12-26T14:35:03.491Z,0.00
2022-12-26T14:37:39.333Z,0.00
2022-12-26T14:40:25.431Z,0.00
2022-12-26T14:43:25.818Z,0.00
2022-12-26T14:45:54.430Z,0.00
2022-12-26T14:48:47.798Z,0.40
2022-12-26T14:51:40.058Z,0.00
2022-12-26T14:54:50.894Z,0.00
2022-12-26T14:57:46.288Z,0.00
2022-12-26T15:00:30.834Z,0.50
2022-12-26T15:03:26.107Z,0.20
2022-12-26T15:05:58.548Z,0.00
2022-12-26T15:08:42.492Z,0.00
2022-12-26T15:11:39.610Z,0.00
2022-12-26T15:14:42.736Z,0.00
2022-12-26T15:17:18.185Z,0.00
2022-12-26T15:20:17.413Z,0.08
2022-12-26T15:23:04.433Z,0.00
2022-12-26T15:26:08.799Z,0.00
2022-12-26T15:28:48.398Z,0.00
2022-12-26T15:31:33.990Z,0.00
2022-12-26T15:34:17.388Z,0.00
2022-12-26T15:36:55.613Z,0.00
2022-12-26T15:39:28.448Z,0.00
2022-12-26T15:42:00.862Z,0.00
2022-12-26T15:44:31.670Z,0.00
2022-12-26T15:47:07.757Z,0.00
2022-12-26T15:50:00.348Z,0.00
2022-12-26T15:52:37.850Z,0.80
2022-12-26T15:55:27.290Z,0.00
2022-12-26T15:57:59.276Z,1.00
2022-12-26T16:00:28.073Z,0.70
2022-12-26T16:03:06.837Z,0.00
2022-12-26T16:05:43.395Z,0.00
2022-12-26T16:08:36.850Z,0.00
2022-12-26T16:11:23.341Z,0.00
2022-12-26T16:13:57.626Z,0.10
2022-12-26T16:16:27.762Z,0.00
2022-12-26T16:18:55.512Z,0.00
2022-12-26T16:21:45.807Z,0.80
2022-12-26T16:24:15.257Z,0.00
2022-12-26T16:26:44.795Z,0.00
2022-12-26T16:29:17.326Z,0.00
2022-12-26T16:31:45.187Z,0.00
2022-12-26T16:34:16.088Z,0.00
2022-12-26T16:36:45.439Z,0.00
2022-12-26T16:39:14.252Z,0.00
2022-12-26T16:42:01.035Z,0.00
2022-12-26T16:44:31.608Z,0.00
2022-12-26T16:47:01.982Z,0.38
2022-12-26T16:49:30.134Z,0.00
2022-12-26T16:51:59.196Z,0.00
2022-12-26T16:54:30.152Z,0.00
2022-12-26T16:57:04.057Z,0.00
2022-12-26T16:59:39.854Z,0.00
2022-12-26T17:02:15.820Z,0.00
2022-12-26T17:04:56.795Z,0.00
2022-12-26T17:07:28.098Z,0.60
2022-12-26T17:09:57.899Z,0.50
2022-12-26T17:12:27.239Z,0.00
2022-12-26T17:14:55.414Z,0.03
2022-12-26T17:17:34.892Z,0.00
2022-12-26T17:20:37.422Z,0.00
2022-12-26T17:23:35.680Z,0.00
2022-12-26T17:26:19.117Z,0.20
2022-12-26T17:28:46.862Z,0.30
2022-12-26T17:31:18.461Z,0.00
2022-12-26T17:33:49.331Z,0.00
2022-12-26T17:39:18.808Z,0.30
2022-12-26T17:41:50.964Z,0.00
2022-12-26T17:44:38.923Z,0.00
2022-12-26T17:47:17.036Z,0.10
2022-12-26T17:49:44.727Z,0.00
2022-12-26T17:52:13.176Z,0.70
2022-12-26T17:54:45.335Z,0.10
2022-12-26T17:57:18.464Z,0.00
2022-12-26T17:59:46.344Z,0.00
2022-12-26T18:02:14.044Z,0.30
2022-12-26T18:04:41.711Z,0.00
2022-12-26T18:07:12.473Z,0.00
2022-12-26T18:09:40.388Z,0.00
2022-12-26T18:12:11.528Z,0.00
2022-12-26T18:14:39.205Z,0.00
2022-12-26T18:17:07.404Z,0.10
2022-12-26T18:19:35.939Z,0.00
2022-12-26T18:22:03.461Z,0.10
2022-12-26T18:24:31.789Z,0.10
2022-12-26T18:26:59.587Z,0.00
2022-12-26T18:29:28.757Z,0.10
2022-12-26T18:31:56.511Z,1.20
2022-12-26T18:34:24.936Z,0.60
2022-12-26T18:36:52.618Z,0.00
2022-12-26T18:39:22.785Z,0.10
2022-12-26T18:41:50.299Z,0.00
2022-12-26T18:44:19.361Z,0.00
2022-12-26T18:46:48.417Z,0.00
2022-12-26T18:49:17.073Z,0.00
2022-12-26T18:51:44.796Z,0.00
2022-12-26T18:54:12.307Z,0.00
2022-12-26T18:56:40.052Z,0.08
2022-12-26T18:59:07.547Z,0.00
2022-12-26T19:01:35.214Z,0.20
2022-12-26T19:04:04.563Z,1.80
2022-12-26T19:06:35.284Z,0.00
2022-12-26T19:09:03.211Z,0.00
2022-12-26T19:11:30.803Z,0.00
2022-12-26T19:14:00.687Z,0.00
2022-12-26T19:16:28.326Z,0.10
2022-12-26T19:18:56.031Z,0.00
2022-12-26T19:21:24.908Z,0.00
2022-12-26T19:23:52.478Z,0.15
2022-12-26T19:26:20.425Z,0.00
2022-12-26T19:28:51.902Z,0.00
2022-12-26T19:31:20.060Z,0.15
2022-12-26T19:33:48.053Z,0.60
2022-12-26T19:36:15.992Z,0.40
2022-12-26T19:38:45.081Z,0.80
2022-12-26T19:41:14.640Z,1.40
2022-12-26T19:43:42.411Z,1.30
2022-12-26T19:46:12.622Z,1.67
2022-12-26T19:48:41.098Z,1.85
2022-12-26T19:51:10.552Z,1.80
2022-12-26T19:53:39.666Z,1.85
2022-12-26T19:56:09.857Z,2.10
2022-12-26T19:58:37.434Z,1.90
2022-12-26T20:01:08.967Z,2.15
2022-12-26T20:03:36.689Z,1.95
2022-12-26T20:06:09.859Z,1.40
2022-12-26T20:08:37.750Z,1.83
2022-12-26T20:11:07.316Z,1.40
2022-12-26T20:13:36.775Z,1.73
2022-12-26T20:16:05.490Z,1.67
2022-12-26T20:18:33.399Z,1.50
2022-12-26T20:21:00.927Z,1.50
2022-12-26T20:23:28.529Z,1.38
2022-12-26T20:25:59.212Z,1.77
2022-12-26T20:28:26.955Z,1.58
2022-12-26T20:31:02.368Z,2.10
2022-12-26T20:33:30.180Z,1.63
2022-12-26T20:36:04.597Z,2.05
2022-12-26T20:38:32.353Z,2.20
2022-12-26T20:41:00.172Z,1.60
2022-12-26T20:43:28.245Z,1.60
2022-12-26T20:46:00.713Z,1.85
2022-12-26T20:48:32.348Z,1.60
2022-12-26T20:51:01.776Z,1.53
2022-12-26T20:53:29.653Z,1.70
2022-12-26T20:55:58.376Z,1.42
2022-12-26T20:58:26.561Z,1.70
2022-12-26T21:00:56.911Z,1.85
2022-12-26T21:03:25.383Z,1.55
2022-12-26T21:05:54.571Z,1.47
2022-12-26T21:08:22.465Z,1.23
2022-12-26T21:10:50.019Z,1.65
2022-12-26T21:13:17.552Z,1.30
2022-12-26T21:15:45.505Z,1.25
2022-12-26T21:18:13.403Z,1.50
2022-12-26T21:20:41.595Z,2.20
2022-12-26T21:23:10.464Z,1.15
2022-12-26T21:25:38.524Z,1.52
2022-12-26T21:28:05.995Z,1.60
2022-12-26T21:30:33.577Z,1.93
2022-12-26T21:33:01.215Z,1.70
2022-12-26T21:35:28.757Z,1.33
2022-12-26T21:37:56.361Z,1.33
2022-12-26T21:40:27.469Z,1.58
2022-12-26T21:42:55.031Z,2.33
2022-12-26T21:45:22.728Z,2.35
2022-12-26T21:47:50.429Z,1.80
2022-12-26T21:50:18.128Z,1.80
2022-12-26T21:52:45.660Z,1.45
2022-12-26T21:55:27.273Z,1.60
2022-12-26T21:57:56.731Z,1.98
2022-12-26T22:00:24.774Z,1.48
2022-12-26T22:03:10.080Z,1.60
2022-12-26T22:05:39.013Z,1.63
2022-12-26T22:08:08.265Z,1.80
2022-12-26T22:10:55.014Z,1.58
2022-12-26T22:13:25.257Z,1.83
2022-12-26T22:16:07.445Z,1.70
2022-12-26T22:18:37.521Z,2.03
2022-12-26T22:21:07.625Z,1.98
2022-12-26T22:23:35.349Z,1.25
2022-12-26T22:26:03.080Z,1.38
2022-12-26T22:28:32.087Z,2.40
2022-12-26T22:31:00.612Z,2.10
2022-12-26T22:33:29.301Z,1.48
2022-12-26T22:35:57.295Z,1.63
2022-12-26T22:38:25.049Z,1.58
2022-12-26T22:40:57.221Z,1.67
2022-12-26T22:43:25.599Z,1.67
2022-12-26T22:45:54.867Z,1.90
2022-12-26T22:48:23.049Z,1.80
2022-12-26T22:50:53.680Z,2.15
2022-12-26T22:53:24.000Z,1.50
2022-12-26T22:55:54.246Z,1.92
2022-12-26T22:58:21.906Z,1.65
2022-12-26T23:00:49.947Z,1.80
2022-12-26T23:03:19.229Z,1.77
2022-12-26T23:05:47.845Z,2.10
2022-12-26T23:08:19.457Z,2.00
2022-12-26T23:10:48.064Z,2.05
2022-12-26T23:13:16.698Z,1.65
2022-12-26T23:15:57.095Z,1.65
2022-12-26T23:18:50.966Z,1.47
2022-12-26T23:21:41.545Z,1.77
2022-12-26T23:24:11.815Z,1.93
2022-12-26T23:26:39.998Z,1.63
2022-12-26T23:29:25.728Z,1.80
2022-12-26T23:31:53.424Z,1.63
2022-12-26T23:34:22.708Z,2.47
2022-12-26T23:36:50.256Z,1.60
2022-12-26T23:39:18.032Z,1.30
2022-12-26T23:41:45.652Z,1.70
2022-12-26T23:44:13.776Z,1.67
2022-12-26T23:46:42.066Z,1.23
2022-12-26T23:49:09.662Z,1.77
2022-12-26T23:51:39.037Z,1.85
2022-12-26T23:54:06.683Z,1.92
2022-12-26T23:56:34.206Z,1.95
2022-12-26T23:59:01.727Z,1.98
